Time;durP1;ratioP1;P1;durP2;ratioP2;P2;SDS_P1;SDS_P2;PMS_P1;PMS_P2;Temp;Humidity;BMP_temperature;BMP_pressure;BME280_temperature;BME280_humidity;BME280_pressure;Samples;Min_cycle;Max_cycle;Signal;HPM_P1;HPM_P2
2022/12/20 00:02:48;;;;;;;2.08;1.30;;;;;;;16.74;56.89;101212.16;6302533;22;20019;-83
2022/12/20 00:05:25;;;;;;;2.40;1.30;;;;;;;16.72;57.05;101209.56;6271383;22;20004;-81
2022/12/20 00:08:09;;;;;;;1.40;1.00;;;;;;;16.74;57.19;101217.38;6295506;22;20012;-82
2022/12/20 00:10:51;;;;;;;2.45;1.15;;;;;;;16.74;57.22;101225.16;6268809;22;20071;-81
2022/12/20 00:13:47;;;;;;;1.70;1.20;;;;;;;16.73;57.01;101213.91;6283879;22;20007;-82
2022/12/20 00:16:27;;;;;;;1.80;1.20;;;;;;;16.71;57.16;101202.66;6201662;23;20056;-82
2022/12/20 00:19:03;;;;;;;1.52;1.13;;;;;;;16.72;56.96;101195.72;6198897;23;20036;-82
2022/12/20 00:21:34;;;;;;;1.95;1.23;;;;;;;16.71;56.94;101197.44;6199905;23;20016;-81
2022/12/20 00:24:07;;;;;;;2.08;1.05;;;;;;;16.72;57.03;101198.31;6206326;23;20017;-81
2022/12/20 00:26:43;;;;;;;1.92;1.13;;;;;;;16.73;56.89;101194.88;6207114;23;20008;-83
2022/12/20 00:29:10;;;;;;;1.65;1.10;;;;;;;16.73;56.78;101184.47;6232368;23;20004;-83
2022/12/20 00:31:42;;;;;;;1.35;1.00;;;;;;;16.73;56.93;101185.31;6230793;23;20071;-82
2022/12/20 00:34:10;;;;;;;3.85;1.35;;;;;;;16.72;56.95;101185.31;6232752;23;20100;-82
2022/12/20 00:39:22;;;;;;;3.47;1.27;;;;;;;16.72;56.63;101188.78;6212446;23;20064;-82
2022/12/20 00:42:29;;;;;;;2.53;1.15;;;;;;;16.73;56.80;101185.31;6209003;23;20016;-82
2022/12/20 00:45:04;;;;;;;3.20;1.30;;;;;;;16.72;56.73;101182.72;6143824;23;20013;-83
2022/12/20 00:47:42;;;;;;;;;;;;;;;16.73;56.78;101179.28;6146455;23;20030;-82
2022/12/20 00:50:24;;;;;;;1.85;1.13;;;;;;;16.72;56.88;101183.56;6171670;23;19968;-82
2022/12/20 00:56:39;;;;;;;2.75;1.10;;;;;;;16.72;56.80;101167.97;6168538;23;20021;-82
2022/12/20 00:59:33;;;;;;;1.25;1.00;;;;;;;16.72;56.72;101156.72;6151845;23;20009;-82
2022/12/20 01:02:30;;;;;;;1.67;1.10;;;;;;;16.72;56.70;101160.19;6148742;23;20009;-82
2022/12/20 01:05:08;;;;;;;2.08;1.10;;;;;;;16.71;56.79;101149.81;6170394;23;20010;-82
2022/12/20 01:07:46;;;;;;;3.17;1.27;;;;;;;16.71;56.76;101142.03;6169063;23;20032;-83
2022/12/20 01:16:33;;;;;;;1.60;1.00;;;;;;;16.73;56.71;101129.91;6233142;23;20476;-82
2022/12/20 01:19:21;;;;;;;1.73;0.95;;;;;;;16.71;56.53;101134.22;6205809;23;20001;-82
2022/12/20 01:21:58;;;;;;;1.80;1.20;;;;;;;16.71;56.74;101145.47;6241040;23;20023;-83
2022/12/20 01:25:01;;;;;;;2.10;1.10;;;;;;;16.72;56.48;101146.34;6239719;23;20009;-83
2022/12/20 01:27:57;;;;;;;1.48;1.10;;;;;;;16.72;56.39;101135.94;6190249;23;20027;-81
2022/12/20 01:34:27;;;;;;;2.35;1.25;;;;;;;16.71;56.41;101124.69;6266034;23;20039;-82
2022/12/20 01:37:51;;;;;;;2.92;1.10;;;;;;;16.72;56.43;101125.53;6174422;23;20048;-81
2022/12/20 01:40:46;;;;;;;1.48;1.00;;;;;;;16.72;56.57;101126.41;6175444;23;20450;-82
2022/12/20 01:43:14;;;;;;;2.35;1.20;;;;;;;16.70;56.35;101115.19;6115946;23;20494;-83
2022/12/20 01:45:51;;;;;;;1.70;1.00;;;;;;;16.71;56.19;101110.84;6115590;23;20010;-82
2022/12/20 01:48:41;;;;;;;1.50;1.08;;;;;;;16.72;56.84;101109.94;6072395;23;20041;-82
2022/12/20 01:51:18;;;;;;;1.45;1.08;;;;;;;16.71;56.49;101100.44;6042466;23;20014;-82
2022/12/20 01:53:48;;;;;;;2.08;0.98;;;;;;;16.70;56.48;101094.38;6088592;23;20489;-82
2022/12/20 01:56:24;;;;;;;2.08;1.02;;;;;;;16.72;56.46;101102.16;6090042;23;20006;-82
2022/12/20 01:58:56;;;;;;;2.42;1.10;;;;;;;16.71;56.33;101106.50;6087196;23;20061;-82
2022/12/20 02:01:30;;;;;;;1.70;1.10;;;;;;;16.72;56.39;101102.16;6110137;23;20439;-82
2022/12/20 02:03:59;;;;;;;1.95;1.00;;;;;;;16.71;56.26;101097.84;6042478;23;19998;-83
2022/12/20 02:16:58;;;;;;;1.40;0.80;;;;;;;16.72;56.34;101094.34;6133223;23;20060;-83
2022/12/20 02:20:27;;;;;;;1.48;0.90;;;;;;;16.72;56.54;101103.00;6104801;23;20009;-81
2022/12/20 02:26:47;;;;;;;1.98;1.10;;;;;;;16.72;56.30;101109.94;6181299;22;20095;-79
2022/12/20 02:29:12;;;;;;;1.98;1.10;;;;;;;16.72;56.39;101120.34;6279173;22;19999;-79
2022/12/20 02:32:01;;;;;;;1.10;0.98;;;;;;;16.71;56.35;101124.69;6280479;22;20015;-79
2022/12/20 02:34:31;;;;;;;2.03;1.10;;;;;;;16.72;56.50;101122.94;6281211;22;20005;-79
2022/12/20 02:36:57;;;;;;;1.40;0.98;;;;;;;16.72;56.47;101122.94;6278706;22;20442;-79
2022/12/20 12:08:04;;;;;;;2.42;1.13;;;;;;;17.00;56.44;100919.25;6324769;22;20450;-91
2022/12/20 12:11:16;;;;;;;1.83;1.15;;;;;;;17.00;56.42;100924.47;6298714;22;20019;-94
2022/12/20 12:19:29;;;;;;;1.58;0.95;;;;;;;16.98;56.30;100923.59;6300610;22;20015;-93
2022/12/20 17:38:43;;;;;;;2.25;1.20;;;;;;;17.08;55.92;100997.25;6302796;22;20030;-91
2022/12/20 17:47:12;;;;;;;1.92;1.35;;;;;;;17.11;56.29;100993.75;6327458;22;20069;-82
2022/12/20 17:49:38;;;;;;;1.90;1.20;;;;;;;17.11;55.90;100998.94;6291259;22;20003;-82
2022/12/20 17:52:03;;;;;;;1.80;1.20;;;;;;;17.12;55.99;100998.94;6316422;22;20003;-84
2022/12/20 17:54:29;;;;;;;2.30;1.10;;;;;;;17.13;55.88;100998.06;6321553;22;20423;-82
2022/12/20 17:56:55;;;;;;;3.67;1.30;;;;;;;17.13;55.89;100989.41;6316777;22;20007;-83
2022/12/20 17:59:21;;;;;;;3.30;1.45;;;;;;;17.13;56.08;100992.00;6238381;22;20343;-83
2022/12/20 18:01:51;;;;;;;7.72;2.60;;;;;;;17.13;55.95;100990.25;6298394;22;20014;-82
2022/12/20 18:04:19;;;;;;;5.97;3.17;;;;;;;17.14;56.04;100991.16;6304935;22;20003;-83
2022/12/20 18:07:04;;;;;;;6.20;3.08;;;;;;;17.14;56.28;101001.56;6326579;22;20004;-85
2022/12/20 18:12:51;;;;;;;7.05;2.78;;;;;;;17.15;56.11;101004.13;6329868;22;20018;-84
2022/12/20 18:15:18;;;;;;;6.28;2.65;;;;;;;17.16;56.23;101010.19;6245477;22;20432;-82
2022/12/20 18:18:20;;;;;;;6.53;2.90;;;;;;;17.18;56.33;101017.13;6293730;22;20005;-84
2022/12/20 18:20:45;;;;;;;4.63;2.58;;;;;;;17.19;56.26;101024.03;6290825;22;20011;-82
2022/12/20 18:23:11;;;;;;;7.30;2.97;;;;;;;17.18;56.65;101022.34;6316613;22;20013;-83
2022/12/20 18:25:38;;;;;;;5.80;2.55;;;;;;;17.19;56.23;101023.19;6294710;22;20003;-83
2022/12/20 18:28:03;;;;;;;7.85;2.67;;;;;;;17.20;56.30;101028.41;6318014;22;20327;-83
2022/12/20 18:30:47;;;;;;;4.65;2.65;;;;;;;17.20;56.33;101018.00;6289054;22;20003;-83
2022/12/20 18:33:12;;;;;;;6.05;2.38;;;;;;;17.20;56.63;101006.69;6291906;22;20015;-85
2022/12/20 18:35:58;;;;;;;8.85;2.53;;;;;;;17.21;56.55;101000.66;6264400;22;20007;-84
2022/12/20 18:38:23;;;;;;;4.95;2.45;;;;;;;17.20;56.50;100996.28;6291098;22;20428;-83
2022/12/20 18:40:49;;;;;;;4.53;1.83;;;;;;;17.20;56.47;101005.00;6291176;22;20011;-84
2022/12/20 18:43:14;;;;;;;3.88;2.30;;;;;;;17.21;56.47;101001.50;6278335;22;20020;-83
2022/12/20 18:45:40;;;;;;;4.00;2.40;;;;;;;17.21;56.53;101005.84;6203918;23;20012;-83
2022/12/20 18:48:08;;;;;;;3.28;1.73;;;;;;;17.21;56.46;101004.09;6253444;23;20022;-83
2022/12/20 18:50:37;;;;;;;4.75;2.30;;;;;;;17.22;56.38;101012.75;6257171;22;20000;-83
2022/12/20 18:53:02;;;;;;;3.65;2.03;;;;;;;17.24;56.70;101017.06;6205894;23;20333;-83
2022/12/20 18:55:28;;;;;;;3.92;1.88;;;;;;;17.22;56.83;101012.75;6255520;23;20145;-84
2022/12/20 18:57:54;;;;;;;5.03;1.98;;;;;;;17.22;56.67;101007.56;6255715;23;20432;-83
2022/12/20 19:00:20;;;;;;;4.13;1.88;;;;;;;17.21;56.70;101004.09;6228391;23;20385;-83
2022/12/20 19:02:45;;;;;;;3.00;1.80;;;;;;;17.22;56.57;101005.84;6256672;23;20012;-83
2022/12/20 19:05:11;;;;;;;4.35;2.03;;;;;;;17.22;56.67;101018.84;6229530;23;20043;-83
2022/12/20 19:07:36;;;;;;;3.97;2.00;;;;;;;17.22;56.67;101007.56;6253142;23;20339;-82
2022/12/20 19:10:02;;;;;;;2.08;1.65;;;;;;;17.22;56.51;101005.84;6233210;23;20031;-84
2022/12/20 19:12:29;;;;;;;2.83;1.80;;;;;;;17.24;56.68;101009.28;6263728;23;20004;-89
2022/12/20 19:14:54;;;;;;;3.33;1.60;;;;;;;17.23;56.84;101004.09;6263341;23;20008;-82
2022/12/20 19:17:20;;;;;;;2.78;1.50;;;;;;;17.25;56.86;101013.63;6259561;23;20309;-82
2022/12/20 19:19:45;;;;;;;2.85;1.50;;;;;;;17.25;56.71;101003.22;6257285;23;20004;-83
2022/12/20 19:22:29;;;;;;;3.33;1.88;;;;;;;17.26;56.80;101014.47;6266023;23;20051;-85
2022/12/20 19:27:56;;;;;;;3.05;1.55;;;;;;;17.26;56.74;101020.53;6291109;22;20030;-84
2022/12/20 20:17:59;;;;;;;2.72;1.60;;;;;;;17.32;57.18;101052.59;6288318;22;20240;-84
2022/12/20 20:20:25;;;;;;;3.10;1.73;;;;;;;17.32;57.08;101055.22;6295539;22;20019;-85
2022/12/20 20:29:35;;;;;;;2.58;1.42;;;;;;;17.33;57.22;101046.53;6301175;22;20023;-86
2022/12/20 20:32:02;;;;;;;3.65;1.58;;;;;;;17.32;57.22;101037.84;6272117;22;20046;-85
2022/12/20 20:37:26;;;;;;;2.00;1.50;;;;;;;17.32;57.08;101045.66;6293828;22;20030;-87
2022/12/20 20:46:36;;;;;;;2.53;1.52;;;;;;;17.33;57.23;101081.19;6298978;22;20014;-86
2022/12/20 21:19:40;;;;;;;2.10;1.45;;;;;;;17.35;57.04;101060.38;6293117;22;20027;-94
2022/12/20 21:24:59;;;;;;;3.35;1.70;;;;;;;17.35;57.04;101065.59;6295870;22;20019;-91
2022/12/20 21:44:32;;;;;;;2.53;1.58;;;;;;;17.33;57.57;101077.72;6300359;22;20090;-91
2022/12/20 21:47:04;;;;;;;2.88;1.45;;;;;;;17.31;57.26;101074.28;6276418;22;20021;-92
2022/12/20 21:52:53;;;;;;;2.67;1.77;;;;;;;17.30;57.15;101078.63;6231851;23;20539;-93
2022/12/20 22:15:33;;;;;;;2.70;1.70;;;;;;;17.28;57.13;101069.94;6290297;22;20111;-92
2022/12/20 22:23:44;;;;;;;4.50;1.50;;;;;;;17.29;57.39;101089.91;6296891;22;20018;-91
2022/12/20 23:18:11;;;;;;;7.68;4.20;;;;;;;17.13;56.86;101088.22;6299711;22;20046;-88
2022/12/20 23:48:29;;;;;;;5.78;3.30;;;;;;;17.10;56.71;101109.91;6332761;22;20037;-88
2022/12/20 23:50:56;;;;;;;10.00;4.18;;;;;;;17.08;56.65;101108.19;6301576;22;20027;-87
2022/12/20 23:56:48;;;;;;;8.57;4.25;;;;;;;17.09;56.40;101113.34;6283360;22;20023;-87
2022/12/20 23:59:14;;;;;;;9.13;3.70;;;;;;;17.06;56.72;101116.84;6306354;22;19995;-89
